Hartley, South Dakota
Current Conditions -  °F | °C
As of 11:55 AM on Thursday 23 Oct 2014 (Local Time) from KPHP Reporting Station
Clear Clear  
Wind Chill: 66°   Ceiling: Unl
Heat Index: 66°   Visibility: 10mi
Dew Point: 30°   Wind: 8mph
Humidity: 26%   Direction: 230°SW
Pressure: 29.94"   Gusts: NA
Location:  44.4194°N, 101.806°W
Report Text: KPHP 231755Z AUTO 23007KT 10SM CLR 19/M01 A2994 RMK AO2 SLP137 T01891011 10194 21017 58015
Loading
Personal Weather Stations






























Interactive Weather Map
Tropical Storm Tracking
New forecast layout! Learn more

10-Day Weather Forecast

Advertisements
Track Severe Weather on mobile